sensor_id;sensor_type;location;lat;lon;timestamp;P1;durP1;ratioP1;P2;durP2;ratioP2
19907;SDS011;10116;53.112;7.356;2022-12-07T00:00:27;1.43;;;0.80;;
19907;SDS011;10116;53.112;7.356;2022-12-07T00:02:53;1.00;;;1.00;;
19907;SDS011;10116;53.112;7.356;2022-12-07T00:05:19;1.00;;;1.00;;
19907;SDS011;10116;53.112;7.356;2022-12-07T00:07:44;1.03;;;1.03;;
19907;SDS011;10116;53.112;7.356;2022-12-07T00:10:10;1.20;;;1.10;;
19907;SDS011;10116;53.112;7.356;2022-12-07T00:12:35;1.10;;;1.10;;
19907;SDS011;10116;53.112;7.356;2022-12-07T00:15:01;1.53;;;0.90;;
19907;SDS011;10116;53.112;7.356;2022-12-07T00:17:27;1.10;;;1.10;;
19907;SDS011;10116;53.112;7.356;2022-12-07T00:19:53;1.00;;;1.00;;
19907;SDS011;10116;53.112;7.356;2022-12-07T00:22:18;1.47;;;1.37;;
19907;SDS011;10116;53.112;7.356;2022-12-07T00:24:44;1.73;;;1.10;;
19907;SDS011;10116;53.112;7.356;2022-12-07T00:27:09;1.17;;;0.90;;
19907;SDS011;10116;53.112;7.356;2022-12-07T00:29:35;2.00;;;1.10;;
19907;SDS011;10116;53.112;7.356;2022-12-07T00:32:02;1.53;;;1.20;;
19907;SDS011;10116;53.112;7.356;2022-12-07T00:34:28;1.00;;;1.00;;
19907;SDS011;10116;53.112;7.356;2022-12-07T00:36:53;0.80;;;0.80;;
19907;SDS011;10116;53.112;7.356;2022-12-07T00:39:19;1.33;;;1.10;;
19907;SDS011;10116;53.112;7.356;2022-12-07T00:41:44;1.30;;;1.20;;
19907;SDS011;10116;53.112;7.356;2022-12-07T00:44:10;0.90;;;0.90;;
19907;SDS011;10116;53.112;7.356;2022-12-07T00:46:36;0.97;;;0.97;;
19907;SDS011;10116;53.112;7.356;2022-12-07T00:49:02;0.80;;;0.80;;
19907;SDS011;10116;53.112;7.356;2022-12-07T00:51:27;1.03;;;1.00;;
19907;SDS011;10116;53.112;7.356;2022-12-07T00:53:53;0.80;;;0.80;;
19907;SDS011;10116;53.112;7.356;2022-12-07T00:56:20;1.90;;;1.00;;
19907;SDS011;10116;53.112;7.356;2022-12-07T00:58:51;1.10;;;1.10;;
19907;SDS011;10116;53.112;7.356;2022-12-07T01:01:28;1.30;;;1.20;;
19907;SDS011;10116;53.112;7.356;2022-12-07T01:03:56;1.27;;;1.00;;
19907;SDS011;10116;53.112;7.356;2022-12-07T01:06:22;1.17;;;1.10;;
19907;SDS011;10116;53.112;7.356;2022-12-07T01:08:49;0.90;;;0.90;;
19907;SDS011;10116;53.112;7.356;2022-12-07T01:11:16;0.70;;;0.70;;
19907;SDS011;10116;53.112;7.356;2022-12-07T01:13:44;1.07;;;0.70;;
19907;SDS011;10116;53.112;7.356;2022-12-07T01:16:11;2.10;;;1.07;;
19907;SDS011;10116;53.112;7.356;2022-12-07T01:18:38;1.00;;;0.93;;
19907;SDS011;10116;53.112;7.356;2022-12-07T01:21:05;0.77;;;0.77;;
19907;SDS011;10116;53.112;7.356;2022-12-07T01:23:34;1.30;;;1.00;;
19907;SDS011;10116;53.112;7.356;2022-12-07T01:26:02;1.90;;;0.97;;
19907;SDS011;10116;53.112;7.356;2022-12-07T01:28:30;1.27;;;0.90;;
19907;SDS011;10116;53.112;7.356;2022-12-07T01:31:07;1.30;;;1.20;;
19907;SDS011;10116;53.112;7.356;2022-12-07T01:33:37;1.20;;;1.00;;
19907;SDS011;10116;53.112;7.356;2022-12-07T01:38:53;1.37;;;1.10;;
19907;SDS011;10116;53.112;7.356;2022-12-07T01:41:21;0.80;;;0.80;;
19907;SDS011;10116;53.112;7.356;2022-12-07T01:46:37;1.10;;;0.97;;
19907;SDS011;10116;53.112;7.356;2022-12-07T01:49:03;1.07;;;0.97;;
19907;SDS011;10116;53.112;7.356;2022-12-07T01:51:33;0.60;;;0.60;;
19907;SDS011;10116;53.112;7.356;2022-12-07T01:53:59;0.70;;;0.70;;
19907;SDS011;10116;53.112;7.356;2022-12-07T01:56:26;0.90;;;0.70;;
19907;SDS011;10116;53.112;7.356;2022-12-07T01:58:54;1.17;;;0.80;;
19907;SDS011;10116;53.112;7.356;2022-12-07T02:01:21;1.00;;;0.90;;
19907;SDS011;10116;53.112;7.356;2022-12-07T02:03:46;0.83;;;0.80;;
19907;SDS011;10116;53.112;7.356;2022-12-07T02:06:13;0.70;;;0.70;;
19907;SDS011;10116;53.112;7.356;2022-12-07T02:08:43;0.60;;;0.53;;
19907;SDS011;10116;53.112;7.356;2022-12-07T02:11:10;1.27;;;0.70;;
19907;SDS011;10116;53.112;7.356;2022-12-07T02:13:36;0.90;;;0.90;;
19907;SDS011;10116;53.112;7.356;2022-12-07T02:24:54;0.70;;;0.67;;
19907;SDS011;10116;53.112;7.356;2022-12-07T02:30:14;0.70;;;0.70;;
19907;SDS011;10116;53.112;7.356;2022-12-07T02:32:48;0.70;;;0.70;;
19907;SDS011;10116;53.112;7.356;2022-12-07T02:35:23;0.60;;;0.57;;
19907;SDS011;10116;53.112;7.356;2022-12-07T02:40:31;1.00;;;0.90;;
19907;SDS011;10116;53.112;7.356;2022-12-07T02:45:42;0.70;;;0.57;;
19907;SDS011;10116;53.112;7.356;2022-12-07T02:48:12;0.70;;;0.50;;
19907;SDS011;10116;53.112;7.356;2022-12-07T02:50:44;1.07;;;0.60;;
19907;SDS011;10116;53.112;7.356;2022-12-07T02:53:32;0.63;;;0.63;;
19907;SDS011;10116;53.112;7.356;2022-12-07T03:03:57;2.83;;;0.80;;
19907;SDS011;10116;53.112;7.356;2022-12-07T03:06:39;1.13;;;0.60;;
19907;SDS011;10116;53.112;7.356;2022-12-07T03:14:33;0.80;;;0.80;;
19907;SDS011;10116;53.112;7.356;2022-12-07T03:17:08;0.70;;;0.60;;
19907;SDS011;10116;53.112;7.356;2022-12-07T03:19:45;1.10;;;0.70;;
19907;SDS011;10116;53.112;7.356;2022-12-07T03:22:14;1.43;;;0.60;;
19907;SDS011;10116;53.112;7.356;2022-12-07T03:24:44;0.50;;;0.50;;
19907;SDS011;10116;53.112;7.356;2022-12-07T03:27:21;1.03;;;0.87;;
19907;SDS011;10116;53.112;7.356;2022-12-07T03:29:54;0.60;;;0.60;;
19907;SDS011;10116;53.112;7.356;2022-12-07T03:32:29;1.23;;;0.70;;
19907;SDS011;10116;53.112;7.356;2022-12-07T03:37:42;0.80;;;0.67;;
19907;SDS011;10116;53.112;7.356;2022-12-07T03:43:00;0.50;;;0.50;;
19907;SDS011;10116;53.112;7.356;2022-12-07T03:45:32;0.80;;;0.50;;
19907;SDS011;10116;53.112;7.356;2022-12-07T03:48:22;1.43;;;0.80;;
19907;SDS011;10116;53.112;7.356;2022-12-07T03:50:54;0.70;;;0.60;;
19907;SDS011;10116;53.112;7.356;2022-12-07T03:53:30;0.60;;;0.60;;
19907;SDS011;10116;53.112;7.356;2022-12-07T03:56:08;0.90;;;0.70;;
19907;SDS011;10116;53.112;7.356;2022-12-07T03:58:35;1.73;;;0.60;;
19907;SDS011;10116;53.112;7.356;2022-12-07T04:01:02;0.50;;;0.50;;
19907;SDS011;10116;53.112;7.356;2022-12-07T04:03:28;1.60;;;0.50;;
19907;SDS011;10116;53.112;7.356;2022-12-07T04:05:53;0.60;;;0.60;;
19907;SDS011;10116;53.112;7.356;2022-12-07T04:08:19;0.67;;;0.67;;
19907;SDS011;10116;53.112;7.356;2022-12-07T04:10:45;0.60;;;0.60;;
19907;SDS011;10116;53.112;7.356;2022-12-07T04:13:10;0.60;;;0.60;;
19907;SDS011;10116;53.112;7.356;2022-12-07T04:15:36;0.50;;;0.50;;
19907;SDS011;10116;53.112;7.356;2022-12-07T04:18:02;0.67;;;0.50;;
19907;SDS011;10116;53.112;7.356;2022-12-07T04:20:27;0.70;;;0.60;;
19907;SDS011;10116;53.112;7.356;2022-12-07T04:22:53;0.93;;;0.60;;
19907;SDS011;10116;53.112;7.356;2022-12-07T04:25:18;3.07;;;0.50;;
19907;SDS011;10116;53.112;7.356;2022-12-07T04:27:44;0.53;;;0.53;;
19907;SDS011;10116;53.112;7.356;2022-12-07T04:30:10;0.80;;;0.40;;
19907;SDS011;10116;53.112;7.356;2022-12-07T04:32:35;0.70;;;0.70;;
19907;SDS011;10116;53.112;7.356;2022-12-07T04:35:01;2.00;;;0.60;;
19907;SDS011;10116;53.112;7.356;2022-12-07T04:37:27;0.70;;;0.53;;
19907;SDS011;10116;53.112;7.356;2022-12-07T04:39:53;0.50;;;0.50;;
19907;SDS011;10116;53.112;7.356;2022-12-07T04:42:18;1.43;;;0.53;;
19907;SDS011;10116;53.112;7.356;2022-12-07T04:44:44;0.60;;;0.50;;
19907;SDS011;10116;53.112;7.356;2022-12-07T04:47:10;0.50;;;0.50;;
19907;SDS011;10116;53.112;7.356;2022-12-07T04:49:35;0.87;;;0.60;;
19907;SDS011;10116;53.112;7.356;2022-12-07T04:52:01;0.60;;;0.50;;
19907;SDS011;10116;53.112;7.356;2022-12-07T04:54:28;0.87;;;0.60;;
19907;SDS011;10116;53.112;7.356;2022-12-07T04:56:53;0.67;;;0.57;;
19907;SDS011;10116;53.112;7.356;2022-12-07T04:59:19;0.80;;;0.60;;
19907;SDS011;10116;53.112;7.356;2022-12-07T05:01:44;0.80;;;0.50;;
19907;SDS011;10116;53.112;7.356;2022-12-07T05:04:10;1.10;;;0.60;;
19907;SDS011;10116;53.112;7.356;2022-12-07T05:06:36;0.80;;;0.50;;
19907;SDS011;10116;53.112;7.356;2022-12-07T05:09:02;0.50;;;0.50;;
19907;SDS011;10116;53.112;7.356;2022-12-07T05:11:28;0.93;;;0.80;;
19907;SDS011;10116;53.112;7.356;2022-12-07T05:14:04;0.73;;;0.60;;
19907;SDS011;10116;53.112;7.356;2022-12-07T05:16:31;1.17;;;0.57;;
19907;SDS011;10116;53.112;7.356;2022-12-07T05:18:57;0.97;;;0.80;;
19907;SDS011;10116;53.112;7.356;2022-12-07T05:21:23;1.83;;;0.60;;
19907;SDS011;10116;53.112;7.356;2022-12-07T05:23:49;1.00;;;0.83;;
19907;SDS011;10116;53.112;7.356;2022-12-07T05:26:15;0.83;;;0.80;;
19907;SDS011;10116;53.112;7.356;2022-12-07T05:28:40;0.50;;;0.43;;
19907;SDS011;10116;53.112;7.356;2022-12-07T05:31:06;2.67;;;0.80;;
19907;SDS011;10116;53.112;7.356;2022-12-07T05:33:32;0.70;;;0.50;;
19907;SDS011;10116;53.112;7.356;2022-12-07T05:35:57;0.97;;;0.60;;
19907;SDS011;10116;53.112;7.356;2022-12-07T05:38:23;0.50;;;0.40;;
19907;SDS011;10116;53.112;7.356;2022-12-07T05:40:50;0.63;;;0.47;;
19907;SDS011;10116;53.112;7.356;2022-12-07T05:43:15;1.27;;;0.70;;
19907;SDS011;10116;53.112;7.356;2022-12-07T05:45:41;0.60;;;0.50;;
19907;SDS011;10116;53.112;7.356;2022-12-07T05:48:07;0.60;;;0.50;;
19907;SDS011;10116;53.112;7.356;2022-12-07T05:50:32;1.03;;;0.60;;
19907;SDS011;10116;53.112;7.356;2022-12-07T05:52:58;1.00;;;0.70;;
19907;SDS011;10116;53.112;7.356;2022-12-07T05:55:24;0.50;;;0.40;;
19907;SDS011;10116;53.112;7.356;2022-12-07T05:57:49;1.33;;;0.70;;
19907;SDS011;10116;53.112;7.356;2022-12-07T06:00:33;0.60;;;0.60;;
19907;SDS011;10116;53.112;7.356;2022-12-07T06:02:59;0.50;;;0.50;;
19907;SDS011;10116;53.112;7.356;2022-12-07T06:05:25;2.37;;;0.67;;
19907;SDS011;10116;53.112;7.356;2022-12-07T06:07:50;1.37;;;0.57;;
19907;SDS011;10116;53.112;7.356;2022-12-07T06:10:16;1.07;;;0.87;;
19907;SDS011;10116;53.112;7.356;2022-12-07T06:12:41;0.70;;;0.70;;
19907;SDS011;10116;53.112;7.356;2022-12-07T06:15:08;0.80;;;0.57;;
19907;SDS011;10116;53.112;7.356;2022-12-07T06:17:35;0.60;;;0.60;;
19907;SDS011;10116;53.112;7.356;2022-12-07T06:20:01;0.50;;;0.50;;
19907;SDS011;10116;53.112;7.356;2022-12-07T06:22:27;1.00;;;0.70;;
19907;SDS011;10116;53.112;7.356;2022-12-07T06:24:53;0.77;;;0.60;;
19907;SDS011;10116;53.112;7.356;2022-12-07T06:27:18;1.00;;;0.77;;
19907;SDS011;10116;53.112;7.356;2022-12-07T06:29:44;1.43;;;0.70;;
19907;SDS011;10116;53.112;7.356;2022-12-07T06:32:10;0.70;;;0.60;;
19907;SDS011;10116;53.112;7.356;2022-12-07T06:34:36;0.80;;;0.60;;
19907;SDS011;10116;53.112;7.356;2022-12-07T06:37:01;0.60;;;0.60;;
19907;SDS011;10116;53.112;7.356;2022-12-07T06:39:28;2.00;;;0.60;;
19907;SDS011;10116;53.112;7.356;2022-12-07T06:41:54;1.87;;;0.60;;
19907;SDS011;10116;53.112;7.356;2022-12-07T06:44:21;0.80;;;0.60;;
19907;SDS011;10116;53.112;7.356;2022-12-07T06:46:47;0.70;;;0.50;;
19907;SDS011;10116;53.112;7.356;2022-12-07T06:49:13;1.30;;;0.70;;
19907;SDS011;10116;53.112;7.356;2022-12-07T06:51:39;4.93;;;0.67;;
19907;SDS011;10116;53.112;7.356;2022-12-07T06:54:11;10.13;;;1.00;;
19907;SDS011;10116;53.112;7.356;2022-12-07T06:56:38;6.13;;;1.93;;
19907;SDS011;10116;53.112;7.356;2022-12-07T06:59:05;5.00;;;1.03;;
19907;SDS011;10116;53.112;7.356;2022-12-07T07:01:32;3.80;;;1.03;;
19907;SDS011;10116;53.112;7.356;2022-12-07T07:03:58;1.43;;;0.93;;
19907;SDS011;10116;53.112;7.356;2022-12-07T07:06:24;6.03;;;1.20;;
19907;SDS011;10116;53.112;7.356;2022-12-07T07:08:50;1.97;;;0.87;;
19907;SDS011;10116;53.112;7.356;2022-12-07T07:11:16;1.87;;;1.27;;
19907;SDS011;10116;53.112;7.356;2022-12-07T07:13:42;5.93;;;1.30;;
19907;SDS011;10116;53.112;7.356;2022-12-07T07:16:07;2.70;;;0.90;;
19907;SDS011;10116;53.112;7.356;2022-12-07T07:18:33;2.20;;;1.03;;
19907;SDS011;10116;53.112;7.356;2022-12-07T07:20:59;1.37;;;0.80;;
19907;SDS011;10116;53.112;7.356;2022-12-07T07:23:25;6.20;;;0.90;;
19907;SDS011;10116;53.112;7.356;2022-12-07T07:25:51;2.23;;;0.87;;
19907;SDS011;10116;53.112;7.356;2022-12-07T07:28:17;1.30;;;0.60;;
19907;SDS011;10116;53.112;7.356;2022-12-07T07:30:43;2.20;;;0.67;;
19907;SDS011;10116;53.112;7.356;2022-12-07T07:33:09;1.77;;;0.87;;
19907;SDS011;10116;53.112;7.356;2022-12-07T07:35:36;6.23;;;1.03;;
19907;SDS011;10116;53.112;7.356;2022-12-07T07:38:01;2.63;;;1.10;;
19907;SDS011;10116;53.112;7.356;2022-12-07T07:40:27;30.97;;;2.47;;
19907;SDS011;10116;53.112;7.356;2022-12-07T07:42:56;47.90;;;2.63;;
19907;SDS011;10116;53.112;7.356;2022-12-07T07:45:23;14.00;;;2.13;;
19907;SDS011;10116;53.112;7.356;2022-12-07T07:47:50;18.90;;;2.33;;
19907;SDS011;10116;53.112;7.356;2022-12-07T07:50:16;8.73;;;2.10;;
19907;SDS011;10116;53.112;7.356;2022-12-07T07:52:43;6.10;;;1.23;;
19907;SDS011;10116;53.112;7.356;2022-12-07T07:55:09;4.07;;;1.20;;
19907;SDS011;10116;53.112;7.356;2022-12-07T07:57:35;3.80;;;1.00;;
19907;SDS011;10116;53.112;7.356;2022-12-07T08:00:03;3.30;;;1.03;;
19907;SDS011;10116;53.112;7.356;2022-12-07T08:02:30;5.60;;;1.20;;
19907;SDS011;10116;53.112;7.356;2022-12-07T08:04:56;3.33;;;1.20;;
19907;SDS011;10116;53.112;7.356;2022-12-07T08:07:21;3.50;;;1.40;;
19907;SDS011;10116;53.112;7.356;2022-12-07T08:09:47;2.90;;;1.50;;
19907;SDS011;10116;53.112;7.356;2022-12-07T08:12:12;7.93;;;1.37;;
19907;SDS011;10116;53.112;7.356;2022-12-07T08:14:38;13.57;;;1.30;;
19907;SDS011;10116;53.112;7.356;2022-12-07T08:17:03;32.70;;;1.83;;
19907;SDS011;10116;53.112;7.356;2022-12-07T08:19:29;5.53;;;1.90;;
19907;SDS011;10116;53.112;7.356;2022-12-07T08:21:55;3.90;;;1.13;;
19907;SDS011;10116;53.112;7.356;2022-12-07T08:24:21;4.60;;;1.37;;
19907;SDS011;10116;53.112;7.356;2022-12-07T08:26:47;3.33;;;1.30;;
19907;SDS011;10116;53.112;7.356;2022-12-07T08:29:14;3.80;;;1.17;;
19907;SDS011;10116;53.112;7.356;2022-12-07T08:31:40;1.80;;;1.00;;
19907;SDS011;10116;53.112;7.356;2022-12-07T08:34:06;2.37;;;1.03;;
19907;SDS011;10116;53.112;7.356;2022-12-07T08:36:31;1.37;;;1.10;;
19907;SDS011;10116;53.112;7.356;2022-12-07T08:38:57;2.30;;;1.00;;
19907;SDS011;10116;53.112;7.356;2022-12-07T08:41:22;3.13;;;1.53;;
19907;SDS011;10116;53.112;7.356;2022-12-07T08:43:48;1.70;;;1.30;;
19907;SDS011;10116;53.112;7.356;2022-12-07T08:46:21;0.90;;;0.83;;
19907;SDS011;10116;53.112;7.356;2022-12-07T08:49:02;2.20;;;1.10;;
19907;SDS011;10116;53.112;7.356;2022-12-07T08:51:37;2.60;;;1.30;;
19907;SDS011;10116;53.112;7.356;2022-12-07T08:54:04;1.83;;;1.00;;
19907;SDS011;10116;53.112;7.356;2022-12-07T08:56:33;8.43;;;1.40;;
19907;SDS011;10116;53.112;7.356;2022-12-07T08:58:59;3.27;;;1.53;;
19907;SDS011;10116;53.112;7.356;2022-12-07T09:01:24;3.20;;;1.13;;
19907;SDS011;10116;53.112;7.356;2022-12-07T09:03:50;4.73;;;1.50;;
19907;SDS011;10116;53.112;7.356;2022-12-07T09:06:16;1.87;;;1.03;;
19907;SDS011;10116;53.112;7.356;2022-12-07T09:08:46;4.40;;;1.67;;
19907;SDS011;10116;53.112;7.356;2022-12-07T09:11:14;2.93;;;1.30;;
19907;SDS011;10116;53.112;7.356;2022-12-07T09:13:40;2.77;;;1.03;;
19907;SDS011;10116;53.112;7.356;2022-12-07T09:16:05;4.03;;;1.23;;
19907;SDS011;10116;53.112;7.356;2022-12-07T09:18:31;3.47;;;1.23;;
19907;SDS011;10116;53.112;7.356;2022-12-07T09:20:57;2.80;;;1.30;;
19907;SDS011;10116;53.112;7.356;2022-12-07T09:23:22;4.10;;;1.30;;
19907;SDS011;10116;53.112;7.356;2022-12-07T09:25:48;1.60;;;1.50;;
19907;SDS011;10116;53.112;7.356;2022-12-07T09:28:14;4.37;;;1.50;;
19907;SDS011;10116;53.112;7.356;2022-12-07T09:30:44;2.67;;;1.30;;
19907;SDS011;10116;53.112;7.356;2022-12-07T09:33:13;1.73;;;1.50;;
19907;SDS011;10116;53.112;7.356;2022-12-07T09:35:49;3.07;;;1.20;;
19907;SDS011;10116;53.112;7.356;2022-12-07T09:38:16;1.90;;;1.10;;
19907;SDS011;10116;53.112;7.356;2022-12-07T09:40:42;9.43;;;1.50;;
19907;SDS011;10116;53.112;7.356;2022-12-07T09:43:16;16.00;;;2.13;;
19907;SDS011;10116;53.112;7.356;2022-12-07T09:45:50;16.23;;;2.30;;
19907;SDS011;10116;53.112;7.356;2022-12-07T09:48:52;23.80;;;2.40;;
19907;SDS011;10116;53.112;7.356;2022-12-07T09:53:47;25.10;;;2.50;;
19907;SDS011;10116;53.112;7.356;2022-12-07T09:56:14;16.87;;;2.70;;
19907;SDS011;10116;53.112;7.356;2022-12-07T09:58:42;12.03;;;1.53;;
19907;SDS011;10116;53.112;7.356;2022-12-07T10:03:37;6.63;;;1.27;;
19907;SDS011;10116;53.112;7.356;2022-12-07T10:06:05;4.80;;;1.40;;
19907;SDS011;10116;53.112;7.356;2022-12-07T10:08:31;10.10;;;1.40;;
19907;SDS011;10116;53.112;7.356;2022-12-07T10:10:57;7.63;;;1.43;;
19907;SDS011;10116;53.112;7.356;2022-12-07T10:16:05;9.37;;;1.30;;
19907;SDS011;10116;53.112;7.356;2022-12-07T10:21:02;4.83;;;1.13;;
19907;SDS011;10116;53.112;7.356;2022-12-07T10:23:43;4.03;;;1.40;;
19907;SDS011;10116;53.112;7.356;2022-12-07T10:26:30;4.37;;;1.07;;
19907;SDS011;10116;53.112;7.356;2022-12-07T10:29:12;13.03;;;1.50;;
19907;SDS011;10116;53.112;7.356;2022-12-07T10:31:42;6.73;;;0.90;;
19907;SDS011;10116;53.112;7.356;2022-12-07T10:34:23;7.03;;;0.80;;
19907;SDS011;10116;53.112;7.356;2022-12-07T10:37:05;3.17;;;1.27;;
19907;SDS011;10116;53.112;7.356;2022-12-07T10:39:56;1.60;;;0.90;;
19907;SDS011;10116;53.112;7.356;2022-12-07T10:42:23;8.50;;;1.60;;
19907;SDS011;10116;53.112;7.356;2022-12-07T10:45:07;8.90;;;1.70;;
19907;SDS011;10116;53.112;7.356;2022-12-07T10:53:02;6.17;;;1.80;;
19907;SDS011;10116;53.112;7.356;2022-12-07T10:59:17;4.53;;;1.30;;
19907;SDS011;10116;53.112;7.356;2022-12-07T11:12:40;2.80;;;1.27;;
19907;SDS011;10116;53.112;7.356;2022-12-07T11:17:52;1.70;;;1.10;;
19907;SDS011;10116;53.112;7.356;2022-12-07T11:23:04;1.07;;;0.97;;
19907;SDS011;10116;53.112;7.356;2022-12-07T11:26:01;3.00;;;1.50;;
19907;SDS011;10116;53.112;7.356;2022-12-07T11:37:17;2.23;;;0.80;;
19907;SDS011;10116;53.112;7.356;2022-12-07T11:39:48;5.43;;;0.83;;
19907;SDS011;10116;53.112;7.356;2022-12-07T11:42:21;0.83;;;0.63;;
19907;SDS011;10116;53.112;7.356;2022-12-07T11:47:23;1.73;;;1.10;;
19907;SDS011;10116;53.112;7.356;2022-12-07T11:49:56;28.37;;;1.57;;
19907;SDS011;10116;53.112;7.356;2022-12-07T11:55:42;1.73;;;0.90;;
19907;SDS011;10116;53.112;7.356;2022-12-07T12:00:54;1.17;;;1.07;;
19907;SDS011;10116;53.112;7.356;2022-12-07T12:03:35;1.10;;;1.00;;
19907;SDS011;10116;53.112;7.356;2022-12-07T12:06:05;2.70;;;0.80;;
19907;SDS011;10116;53.112;7.356;2022-12-07T12:08:33;1.10;;;0.60;;
19907;SDS011;10116;53.112;7.356;2022-12-07T12:21:39;1.60;;;0.70;;
19907;SDS011;10116;53.112;7.356;2022-12-07T12:24:09;0.60;;;0.50;;
19907;SDS011;10116;53.112;7.356;2022-12-07T12:29:34;2.50;;;0.83;;
19907;SDS011;10116;53.112;7.356;2022-12-07T12:37:14;1.37;;;0.87;;
19907;SDS011;10116;53.112;7.356;2022-12-07T12:40:41;1.07;;;0.97;;
19907;SDS011;10116;53.112;7.356;2022-12-07T12:42:51;0.80;;;0.70;;
19907;SDS011;10116;53.112;7.356;2022-12-07T12:48:03;1.03;;;0.73;;
19907;SDS011;10116;53.112;7.356;2022-12-07T12:50:49;1.10;;;0.83;;
19907;SDS011;10116;53.112;7.356;2022-12-07T12:54:02;2.20;;;0.90;;
19907;SDS011;10116;53.112;7.356;2022-12-07T12:56:35;0.73;;;0.73;;
19907;SDS011;10116;53.112;7.356;2022-12-07T12:59:26;4.23;;;0.90;;
19907;SDS011;10116;53.112;7.356;2022-12-07T13:02:45;1.27;;;0.70;;
19907;SDS011;10116;53.112;7.356;2022-12-07T13:07:49;3.80;;;0.67;;
19907;SDS011;10116;53.112;7.356;2022-12-07T13:13:28;0.80;;;0.73;;
19907;SDS011;10116;53.112;7.356;2022-12-07T13:31:39;1.00;;;0.80;;
19907;SDS011;10116;53.112;7.356;2022-12-07T13:37:04;3.03;;;0.60;;
19907;SDS011;10116;53.112;7.356;2022-12-07T13:39:47;1.00;;;0.80;;
19907;SDS011;10116;53.112;7.356;2022-12-07T13:42:26;0.83;;;0.50;;
19907;SDS011;10116;53.112;7.356;2022-12-07T13:44:53;2.40;;;0.73;;
19907;SDS011;10116;53.112;7.356;2022-12-07T13:50:00;2.00;;;0.83;;
19907;SDS011;10116;53.112;7.356;2022-12-07T13:52:30;1.33;;;0.70;;
19907;SDS011;10116;53.112;7.356;2022-12-07T13:57:30;2.70;;;0.77;;
19907;SDS011;10116;53.112;7.356;2022-12-07T13:59:59;1.20;;;0.70;;
19907;SDS011;10116;53.112;7.356;2022-12-07T14:02:33;1.07;;;0.80;;
19907;SDS011;10116;53.112;7.356;2022-12-07T14:05:34;1.80;;;0.60;;
19907;SDS011;10116;53.112;7.356;2022-12-07T14:08:02;1.00;;;0.70;;
19907;SDS011;10116;53.112;7.356;2022-12-07T14:13:17;1.07;;;0.80;;
19907;SDS011;10116;53.112;7.356;2022-12-07T14:15:56;0.60;;;0.50;;
19907;SDS011;10116;53.112;7.356;2022-12-07T14:18:30;0.90;;;0.50;;
19907;SDS011;10116;53.112;7.356;2022-12-07T14:21:22;1.07;;;0.63;;
19907;SDS011;10116;53.112;7.356;2022-12-07T14:24:06;0.70;;;0.60;;
19907;SDS011;10116;53.112;7.356;2022-12-07T14:26:46;0.70;;;0.57;;
19907;SDS011;10116;53.112;7.356;2022-12-07T14:31:56;1.07;;;0.60;;
19907;SDS011;10116;53.112;7.356;2022-12-07T14:34:23;0.60;;;0.60;;
19907;SDS011;10116;53.112;7.356;2022-12-07T14:36:50;0.70;;;0.67;;
19907;SDS011;10116;53.112;7.356;2022-12-07T14:39:16;0.50;;;0.50;;
19907;SDS011;10116;53.112;7.356;2022-12-07T14:41:41;0.70;;;0.60;;
19907;SDS011;10116;53.112;7.356;2022-12-07T14:44:16;0.60;;;0.50;;
19907;SDS011;10116;53.112;7.356;2022-12-07T14:46:43;1.17;;;0.70;;
19907;SDS011;10116;53.112;7.356;2022-12-07T14:49:12;1.00;;;0.70;;
19907;SDS011;10116;53.112;7.356;2022-12-07T14:51:38;1.33;;;0.90;;
19907;SDS011;10116;53.112;7.356;2022-12-07T14:54:27;0.80;;;0.70;;
19907;SDS011;10116;53.112;7.356;2022-12-07T14:56:52;1.03;;;0.60;;
19907;SDS011;10116;53.112;7.356;2022-12-07T14:59:18;1.17;;;0.70;;
19907;SDS011;10116;53.112;7.356;2022-12-07T15:01:44;1.63;;;0.70;;
19907;SDS011;10116;53.112;7.356;2022-12-07T15:04:09;1.00;;;0.60;;
19907;SDS011;10116;53.112;7.356;2022-12-07T15:06:35;0.70;;;0.67;;
19907;SDS011;10116;53.112;7.356;2022-12-07T15:09:01;0.80;;;0.77;;
19907;SDS011;10116;53.112;7.356;2022-12-07T15:11:27;0.83;;;0.43;;
19907;SDS011;10116;53.112;7.356;2022-12-07T15:13:53;0.60;;;0.50;;
19907;SDS011;10116;53.112;7.356;2022-12-07T15:16:34;2.30;;;0.53;;
19907;SDS011;10116;53.112;7.356;2022-12-07T15:19:00;1.17;;;0.80;;
19907;SDS011;10116;53.112;7.356;2022-12-07T15:21:26;0.47;;;0.40;;
19907;SDS011;10116;53.112;7.356;2022-12-07T15:23:52;0.57;;;0.57;;
19907;SDS011;10116;53.112;7.356;2022-12-07T15:26:18;0.70;;;0.40;;
19907;SDS011;10116;53.112;7.356;2022-12-07T15:28:44;0.60;;;0.50;;
19907;SDS011;10116;53.112;7.356;2022-12-07T15:31:13;1.37;;;0.50;;
19907;SDS011;10116;53.112;7.356;2022-12-07T15:33:41;0.60;;;0.60;;
19907;SDS011;10116;53.112;7.356;2022-12-07T15:36:06;0.80;;;0.50;;
19907;SDS011;10116;53.112;7.356;2022-12-07T15:38:32;0.60;;;0.60;;
19907;SDS011;10116;53.112;7.356;2022-12-07T15:40:58;0.80;;;0.60;;
19907;SDS011;10116;53.112;7.356;2022-12-07T15:43:24;4.30;;;0.70;;
19907;SDS011;10116;53.112;7.356;2022-12-07T15:46:08;1.00;;;0.67;;
19907;SDS011;10116;53.112;7.356;2022-12-07T15:48:34;2.93;;;0.90;;
19907;SDS011;10116;53.112;7.356;2022-12-07T15:51:03;1.90;;;0.70;;
19907;SDS011;10116;53.112;7.356;2022-12-07T15:53:30;15.87;;;0.83;;
19907;SDS011;10116;53.112;7.356;2022-12-07T15:55:55;0.93;;;0.73;;
19907;SDS011;10116;53.112;7.356;2022-12-07T15:58:21;2.20;;;0.70;;
19907;SDS011;10116;53.112;7.356;2022-12-07T16:00:47;1.90;;;0.40;;
19907;SDS011;10116;53.112;7.356;2022-12-07T16:03:13;4.07;;;0.50;;
19907;SDS011;10116;53.112;7.356;2022-12-07T16:05:39;1.37;;;0.50;;
19907;SDS011;10116;53.112;7.356;2022-12-07T16:08:04;1.70;;;0.67;;
19907;SDS011;10116;53.112;7.356;2022-12-07T16:10:30;2.50;;;0.60;;
19907;SDS011;10116;53.112;7.356;2022-12-07T16:12:56;1.37;;;0.63;;
19907;SDS011;10116;53.112;7.356;2022-12-07T16:15:21;0.70;;;0.40;;
19907;SDS011;10116;53.112;7.356;2022-12-07T16:17:49;1.07;;;0.57;;
19907;SDS011;10116;53.112;7.356;2022-12-07T16:20:15;0.83;;;0.73;;
19907;SDS011;10116;53.112;7.356;2022-12-07T16:22:40;1.10;;;0.53;;
19907;SDS011;10116;53.112;7.356;2022-12-07T16:25:06;1.70;;;0.57;;
19907;SDS011;10116;53.112;7.356;2022-12-07T16:27:32;0.50;;;0.47;;
19907;SDS011;10116;53.112;7.356;2022-12-07T16:29:57;1.63;;;0.70;;
19907;SDS011;10116;53.112;7.356;2022-12-07T16:32:23;0.50;;;0.40;;
19907;SDS011;10116;53.112;7.356;2022-12-07T16:34:49;5.00;;;0.77;;
19907;SDS011;10116;53.112;7.356;2022-12-07T16:37:15;0.60;;;0.60;;
19907;SDS011;10116;53.112;7.356;2022-12-07T16:39:40;0.83;;;0.50;;
19907;SDS011;10116;53.112;7.356;2022-12-07T16:42:06;1.53;;;0.50;;
19907;SDS011;10116;53.112;7.356;2022-12-07T16:44:31;2.40;;;0.70;;
19907;SDS011;10116;53.112;7.356;2022-12-07T16:46:57;1.33;;;0.67;;
19907;SDS011;10116;53.112;7.356;2022-12-07T16:49:22;0.67;;;0.67;;
19907;SDS011;10116;53.112;7.356;2022-12-07T16:51:49;0.93;;;0.50;;
19907;SDS011;10116;53.112;7.356;2022-12-07T16:54:15;2.40;;;0.60;;
19907;SDS011;10116;53.112;7.356;2022-12-07T16:56:41;0.60;;;0.50;;
19907;SDS011;10116;53.112;7.356;2022-12-07T16:59:07;0.60;;;0.60;;
19907;SDS011;10116;53.112;7.356;2022-12-07T17:01:32;0.70;;;0.60;;
19907;SDS011;10116;53.112;7.356;2022-12-07T17:03:59;0.50;;;0.50;;
19907;SDS011;10116;53.112;7.356;2022-12-07T17:06:26;0.70;;;0.70;;
19907;SDS011;10116;53.112;7.356;2022-12-07T17:08:53;2.20;;;1.40;;
19907;SDS011;10116;53.112;7.356;2022-12-07T17:11:26;6.23;;;2.40;;
19907;SDS011;10116;53.112;7.356;2022-12-07T17:13:53;7.53;;;3.80;;
19907;SDS011;10116;53.112;7.356;2022-12-07T17:16:38;10.33;;;3.30;;
19907;SDS011;10116;53.112;7.356;2022-12-07T17:19:05;9.27;;;4.17;;
19907;SDS011;10116;53.112;7.356;2022-12-07T17:21:35;11.57;;;4.47;;
19907;SDS011;10116;53.112;7.356;2022-12-07T17:24:02;15.57;;;5.70;;
19907;SDS011;10116;53.112;7.356;2022-12-07T17:26:29;12.93;;;5.30;;
19907;SDS011;10116;53.112;7.356;2022-12-07T17:28:56;15.67;;;6.00;;